Time;durP1;ratioP1;P1;durP2;ratioP2;P2;SDS_P1;SDS_P2;PMS_P1;PMS_P2;Temp;Humidity;BMP_temperature;BMP_pressure;BME280_temperature;BME280_humidity;BME280_pressure;Samples;Min_cycle;Max_cycle;Signal;HPM_P1;HPM_P2
2021/01/21 00:00:05;;;;;;;3.70;2.63;;;;;;;5.49;70.39;98937.78;5030452;28;20126;-66
2021/01/21 00:02:37;;;;;;;4.75;2.33;;;;;;;5.44;70.66;98934.81;5030574;28;20041;-66
2021/01/21 00:05:03;;;;;;;3.63;2.33;;;;;;;5.42;70.93;98934.16;5030280;28;20416;-66
2021/01/21 00:07:28;;;;;;;5.43;2.65;;;;;;;5.49;70.91;98931.66;5030061;28;20403;-66
2021/01/21 00:09:54;;;;;;;4.27;3.13;;;;;;;5.50;70.71;98926.19;5031256;28;20095;-66
2021/01/21 00:12:19;;;;;;;6.33;2.70;;;;;;;5.52;70.36;98925.19;5013802;28;20087;-66
2021/01/21 00:14:45;;;;;;;5.20;2.43;;;;;;;5.55;70.56;98924.81;5013838;28;20051;-66
2021/01/21 00:17:10;;;;;;;3.70;2.07;;;;;;;5.55;70.33;98924.81;5030889;28;20041;-66
2021/01/21 00:19:35;;;;;;;4.30;2.40;;;;;;;5.56;70.52;98915.91;5031251;28;20083;-66
2021/01/21 00:22:01;;;;;;;6.70;2.43;;;;;;;5.54;70.63;98912.59;5030051;28;20065;-66
2021/01/21 00:24:26;;;;;;;5.90;1.80;;;;;;;5.57;70.25;98904.31;5031108;28;20091;-66
2021/01/21 00:26:51;;;;;;;5.03;2.00;;;;;;;5.61;69.77;98900.31;5030789;28;20038;-66
2021/01/21 00:29:16;;;;;;;3.03;2.00;;;;;;;5.62;70.13;98909.88;5030206;28;20134;-66
2021/01/21 00:31:42;;;;;;;4.07;2.60;;;;;;;5.65;69.90;98904.25;5031054;28;20048;-66
2021/01/21 00:34:07;;;;;;;9.20;2.57;;;;;;;5.60;70.43;98906.63;5013735;28;20049;-66
2021/01/21 00:36:33;;;;;;;3.77;1.90;;;;;;;5.70;69.58;98888.66;5030128;28;20108;-66
2021/01/21 00:38:58;;;;;;;4.87;2.37;;;;;;;5.66;69.80;98884.72;5035040;28;20038;-66
2021/01/21 00:41:23;;;;;;;4.33;2.80;;;;;;;5.67;69.96;98891.69;5033925;28;20090;-66
2021/01/21 00:43:48;;;;;;;4.63;1.80;;;;;;;5.72;69.67;98879.56;5034068;28;20061;-66
2021/01/21 00:46:14;;;;;;;6.53;1.90;;;;;;;5.75;69.56;98872.25;5033674;28;20044;-66
2021/01/21 00:48:41;;;;;;;5.33;2.00;;;;;;;5.69;69.62;98871.16;5017408;28;20044;-66
2021/01/21 00:51:06;;;;;;;5.50;2.30;;;;;;;5.64;69.82;98871.69;5017290;28;20072;-66
2021/01/21 00:53:32;;;;;;;7.53;2.30;;;;;;;5.61;70.12;98876.50;5017202;28;20416;-66
2021/01/21 00:55:57;;;;;;;6.50;2.13;;;;;;;5.63;70.11;98864.72;5017111;28;20049;-66
2021/01/21 00:58:23;;;;;;;2.97;1.73;;;;;;;5.63;70.08;98864.72;5034707;28;20091;-66
2021/01/21 01:00:48;;;;;;;5.38;2.63;;;;;;;5.58;69.99;98861.78;5033852;28;20033;-66
2021/01/21 01:03:16;;;;;;;4.57;2.40;;;;;;;5.57;70.37;98867.25;5033522;28;20048;-66
2021/01/21 01:05:42;;;;;;;6.85;2.47;;;;;;;5.62;70.12;98863.09;5016959;28;20033;-66
2021/01/21 01:08:08;;;;;;;5.83;2.83;;;;;;;5.61;70.23;98856.13;5033354;28;20474;-66
2021/01/21 01:10:33;;;;;;;6.40;2.50;;;;;;;5.62;70.09;98856.94;5017131;28;20120;-66
2021/01/21 01:13:07;;;;;;;6.38;2.63;;;;;;;5.59;70.40;98852.81;5018087;28;20466;-66
2021/01/21 01:15:35;;;;;;;7.22;2.58;;;;;;;5.51;70.72;98863.50;5033282;28;20069;-66
2021/01/21 01:18:01;;;;;;;5.37;2.33;;;;;;;5.50;70.78;98873.25;5033195;28;20530;-66
2021/01/21 01:20:26;;;;;;;4.50;2.53;;;;;;;5.49;71.03;98852.25;5033369;28;20048;-66
2021/01/21 01:22:53;;;;;;;9.73;2.27;;;;;;;5.46;71.17;98853.44;5033111;28;20048;-66
2021/01/21 01:25:20;;;;;;;4.95;2.58;;;;;;;5.38;71.55;98850.81;5033289;28;20079;-66
2021/01/21 01:27:46;;;;;;;;;;;;;;;5.44;71.47;98844.84;5016948;28;20117;-66
2021/01/21 01:30:12;;;;;;;;;;;;;;;5.43;71.45;98837.91;5033482;28;20019;-66
2021/01/21 01:32:38;;;;;;;;;;;;;;;5.39;71.66;98841.09;5017076;28;19920;-66
2021/01/21 01:35:05;;;;;;;;;;;;;;;5.40;71.65;98840.06;5033436;28;20007;-66
2021/01/21 01:37:30;;;;;;;5.93;1.83;;;;;;;5.42;71.72;98835.44;5033638;28;19979;-66
2021/01/21 01:40:02;;;;;;;3.15;2.20;;;;;;;5.33;71.91;98832.00;5032935;28;20057;-66
2021/01/21 01:42:34;;;;;;;6.38;1.95;;;;;;;5.36;71.79;98836.13;5033789;28;20034;-66
2021/01/21 01:45:01;;;;;;;5.10;2.33;;;;;;;5.36;71.85;98817.59;5032818;28;20116;-66
2021/01/21 01:47:27;;;;;;;8.20;2.20;;;;;;;5.44;71.56;98813.06;5032422;28;20434;-66
2021/01/21 01:49:56;;;;;;;5.53;2.25;;;;;;;5.39;71.66;98815.44;5031991;28;20033;-66
2021/01/21 01:52:25;;;;;;;8.50;2.13;;;;;;;5.38;71.62;98807.66;5032695;28;20363;-66
2021/01/21 01:55:15;;;;;;;3.47;1.95;;;;;;;5.38;71.86;98803.19;5032592;28;20374;-66
2021/01/21 01:57:51;;;;;;;4.82;1.90;;;;;;;5.27;72.53;98793.84;5032411;28;20072;-66
2021/01/21 02:00:18;;;;;;;6.80;2.60;;;;;;;5.31;72.13;98794.31;5032526;28;20095;-66
2021/01/21 02:02:54;;;;;;;5.13;2.55;;;;;;;5.27;72.38;98790.38;5017440;28;20471;-66
2021/01/21 02:05:21;;;;;;;6.45;2.22;;;;;;;5.24;72.16;98780.97;5033268;28;20099;-66
2021/01/21 02:07:48;;;;;;;7.38;2.47;;;;;;;5.18;72.65;98776.38;5015948;28;20048;-66
2021/01/21 02:10:18;;;;;;;4.63;2.10;;;;;;;5.22;72.56;98774.19;5032393;28;20487;-66
2021/01/21 02:13:12;;;;;;;6.13;2.28;;;;;;;5.22;72.78;98777.69;5033012;28;20056;-66
2021/01/21 02:16:04;;;;;;;11.82;3.63;;;;;;;5.21;72.64;98769.91;5015537;28;20128;-66
2021/01/21 02:18:40;;;;;;;5.35;2.35;;;;;;;5.27;72.10;98758.63;5032200;28;20490;-66
2021/01/21 02:21:31;;;;;;;5.25;1.75;;;;;;;5.34;72.02;98753.44;5032123;28;20072;-66
2021/01/21 02:24:34;;;;;;;7.25;2.20;;;;;;;5.40;71.67;98745.63;5032003;28;20349;-66
2021/01/21 02:27:04;;;;;;;4.40;1.90;;;;;;;5.44;71.39;98738.97;5015231;28;20167;-66
2021/01/21 02:29:36;;;;;;;3.28;2.22;;;;;;;5.42;71.72;98733.03;5015939;28;20034;-66
2021/01/21 02:32:08;;;;;;;8.05;2.60;;;;;;;5.53;71.19;98733.63;5032052;28;20033;-66
2021/01/21 02:35:08;;;;;;;7.68;2.95;;;;;;;5.50;71.24;98730.31;5028098;28;20116;-66
2021/01/21 02:37:35;;;;;;;3.22;2.17;;;;;;;5.63;70.89;98726.25;5031641;28;20037;-66
2021/01/21 02:40:05;;;;;;;4.25;1.92;;;;;;;5.53;70.99;98720.38;5031918;28;20064;-66
2021/01/21 02:42:46;;;;;;;5.10;1.80;;;;;;;5.63;70.80;98699.75;5031835;28;20577;-66
2021/01/21 02:45:15;;;;;;;7.45;2.78;;;;;;;5.67;70.52;98706.34;5031764;28;20037;-66
2021/01/21 02:47:46;;;;;;;4.32;1.83;;;;;;;5.64;70.75;98710.19;5031472;28;20482;-66
2021/01/21 02:50:12;;;;;;;8.60;2.17;;;;;;;5.62;70.82;98704.25;5032447;28;20029;-66
2021/01/21 02:52:43;;;;;;;6.43;2.08;;;;;;;5.71;70.53;98697.88;5032599;28;20029;-66
2021/01/21 02:55:33;;;;;;;5.10;1.75;;;;;;;5.74;70.75;98687.91;5031435;28;20037;-66
2021/01/21 02:58:20;;;;;;;4.18;1.92;;;;;;;5.75;70.89;98690.38;5015440;28;20057;-66
2021/01/21 03:00:47;;;;;;;8.20;1.98;;;;;;;5.72;70.85;98693.38;5030361;28;20536;-66
2021/01/21 03:03:17;;;;;;;3.08;1.80;;;;;;;5.78;70.67;98673.28;5031340;28;20465;-66
2021/01/21 03:05:49;;;;;;;5.20;2.50;;;;;;;5.72;70.92;98667.72;5030966;28;20037;-66
2021/01/21 03:08:15;;;;;;;6.78;1.70;;;;;;;5.70;70.95;98659.13;5031336;28;20601;-66
2021/01/21 03:10:40;;;;;;;2.23;1.43;;;;;;;5.87;69.98;98659.78;5031426;28;20044;-66
2021/01/21 03:13:06;;;;;;;6.20;1.77;;;;;;;5.89;69.82;98641.88;5031627;28;20299;-67
2021/01/21 03:15:41;;;;;;;2.97;2.05;;;;;;;6.00;69.67;98645.13;5016478;28;20033;-66
2021/01/21 03:18:12;;;;;;;7.32;2.20;;;;;;;6.01;69.52;98647.56;5031059;28;20047;-66
2021/01/21 03:20:37;;;;;;;6.47;2.30;;;;;;;6.06;69.27;98645.19;5031012;28;20108;-66
2021/01/21 03:23:03;;;;;;;3.43;1.43;;;;;;;6.14;69.48;98636.31;5014533;28;20095;-66
2021/01/21 03:25:29;;;;;;;2.10;1.50;;;;;;;6.01;69.36;98617.59;5014489;28;20647;-66
2021/01/21 03:28:02;;;;;;;5.45;1.77;;;;;;;6.13;68.96;98621.41;5030866;28;20061;-66
2021/01/21 03:30:31;;;;;;;4.40;2.05;;;;;;;6.10;69.14;98611.19;5015002;28;20649;-66
2021/01/21 03:32:59;;;;;;;6.50;1.97;;;;;;;6.14;69.04;98617.78;5030849;28;20045;-66
2021/01/21 03:35:25;;;;;;;4.00;2.40;;;;;;;6.09;69.11;98609.56;5030746;28;20068;-66
2021/01/21 03:37:51;;;;;;;5.00;2.87;;;;;;;6.20;68.54;98587.06;5031453;28;20068;-66
2021/01/21 03:40:18;;;;;;;3.15;1.40;;;;;;;6.14;69.04;98599.22;5030772;28;20029;-66
2021/01/21 03:42:53;;;;;;;3.67;2.05;;;;;;;6.17;68.83;98592.72;5015439;28;20090;-66
2021/01/21 03:45:31;;;;;;;2.67;1.73;;;;;;;6.16;68.99;98583.97;5030661;28;20033;-66
2021/01/21 03:48:03;;;;;;;2.60;1.85;;;;;;;6.18;68.79;98574.00;5014982;28;20057;-66
2021/01/21 03:50:31;;;;;;;4.45;1.80;;;;;;;6.26;68.37;98573.06;5030438;28;20090;-66
2021/01/21 03:52:57;;;;;;;12.63;3.13;;;;;;;6.29;68.35;98572.69;5030499;28;20029;-66
2021/01/21 03:55:30;;;;;;;3.50;2.25;;;;;;;6.29;68.36;98568.19;5030491;28;20037;-66
2021/01/21 03:58:04;;;;;;;5.22;1.63;;;;;;;6.28;68.43;98568.41;5030255;28;20029;-66
2021/01/21 04:00:41;;;;;;;5.38;1.45;;;;;;;6.30;68.42;98563.75;5015602;28;20421;-66
2021/01/21 04:03:06;;;;;;;3.37;1.73;;;;;;;6.34;68.13;98563.19;5030207;28;20132;-66
2021/01/21 04:05:48;;;;;;;5.47;1.95;;;;;;;6.40;68.02;98558.13;5030102;28;20112;-66
2021/01/21 04:08:18;;;;;;;5.32;2.03;;;;;;;6.38;68.19;98549.53;5030286;28;20143;-66
2021/01/21 04:10:49;;;;;;;4.07;1.70;;;;;;;6.48;67.84;98536.78;5030432;28;20083;-66
2021/01/21 04:13:26;;;;;;;9.75;2.17;;;;;;;6.45;67.63;98518.59;5030039;28;20033;-66
2021/01/21 04:15:54;;;;;;;5.65;2.38;;;;;;;6.51;67.65;98531.94;5030175;28;20502;-66
2021/01/21 04:18:20;;;;;;;5.00;1.70;;;;;;;6.55;67.50;98514.63;5030153;28;20044;-66
2021/01/21 04:21:05;;;;;;;4.40;1.67;;;;;;;6.50;67.97;98517.00;5030325;28;20029;-66
2021/01/21 04:23:33;;;;;;;4.15;2.00;;;;;;;6.62;66.97;98525.28;5030064;28;20044;-66
2021/01/21 04:25:59;;;;;;;3.63;1.70;;;;;;;6.64;67.09;98507.34;5013471;28;20473;-66
2021/01/21 04:28:24;;;;;;;5.90;2.58;;;;;;;6.67;66.93;98500.84;5031006;28;20112;-66
2021/01/21 04:30:50;;;;;;;6.47;1.97;;;;;;;6.71;66.96;98502.91;5013758;28;20459;-67
2021/01/21 04:33:15;;;;;;;4.10;1.50;;;;;;;6.83;66.20;98495.25;5030094;28;20075;-67
2021/01/21 04:35:41;;;;;;;8.13;1.67;;;;;;;6.83;66.24;98481.16;5029895;28;20041;-66
2021/01/21 04:38:06;;;;;;;6.70;3.10;;;;;;;6.87;66.14;98485.91;5029981;28;20048;-66
2021/01/21 04:40:40;;;;;;;5.72;2.08;;;;;;;6.95;65.76;98492.88;5030106;28;20044;-66
2021/01/21 04:43:34;;;;;;;3.17;1.33;;;;;;;6.98;65.78;98484.56;5030863;28;20448;-66
2021/01/21 04:46:08;;;;;;;3.97;1.65;;;;;;;7.00;65.66;98468.41;5029889;28;20128;-66
2021/01/21 04:48:35;;;;;;;4.07;1.70;;;;;;;7.07;65.34;98464.81;5029873;28;20044;-66
2021/01/21 04:51:09;;;;;;;6.70;1.92;;;;;;;7.10;65.08;98468.91;5030006;28;20033;-66
2021/01/21 04:53:43;;;;;;;4.82;1.48;;;;;;;7.11;65.12;98449.31;5013888;28;20025;-66
2021/01/21 04:56:25;;;;;;;5.90;1.45;;;;;;;7.09;65.21;98452.13;5029688;28;20033;-66
2021/01/21 04:59:15;;;;;;;4.55;1.35;;;;;;;7.04;65.54;98449.25;5030591;28;20041;-66
2021/01/21 05:01:46;;;;;;;4.47;1.50;;;;;;;7.11;64.94;98450.13;5014135;28;20477;-66
2021/01/21 05:04:14;;;;;;;3.35;1.40;;;;;;;7.07;65.03;98443.59;5013764;28;20042;-66
2021/01/21 05:06:48;;;;;;;3.20;1.33;;;;;;;7.04;65.02;98443.13;5029487;28;20033;-66
2021/01/21 05:09:17;;;;;;;3.20;1.55;;;;;;;7.16;64.37;98441.56;5013892;28;20116;-66
2021/01/21 05:11:43;;;;;;;2.50;1.40;;;;;;;7.05;64.91;98442.97;5029709;28;20163;-66
2021/01/21 05:14:26;;;;;;;5.35;1.70;;;;;;;7.03;64.99;98447.63;5030762;28;20665;-66
2021/01/21 05:17:10;;;;;;;3.28;1.25;;;;;;;7.02;64.92;98437.22;5030761;28;20249;-66
2021/01/21 05:19:54;;;;;;;2.85;1.23;;;;;;;6.96;64.76;98429.03;5029917;28;20045;-66
2021/01/21 05:23:00;;;;;;;2.75;1.40;;;;;;;6.95;64.85;98423.91;5030503;28;20058;-66
2021/01/21 05:26:00;;;;;;;4.85;2.03;;;;;;;6.93;64.89;98429.41;5033006;28;20455;-66
2021/01/21 05:28:44;;;;;;;5.70;2.58;;;;;;;6.94;64.72;98416.97;5033303;28;20038;-66
2021/01/21 05:31:21;;;;;;;3.55;1.58;;;;;;;6.88;65.16;98409.78;5018161;28;20465;-66
2021/01/21 05:33:50;;;;;;;2.92;1.30;;;;;;;6.82;65.25;98402.63;5033097;28;20041;-66
2021/01/21 05:36:20;;;;;;;2.78;1.20;;;;;;;6.83;65.11;98393.66;5032613;28;20017;-66
2021/01/21 05:39:08;;;;;;;2.72;1.40;;;;;;;6.82;65.19;98394.66;5036181;28;20038;-66
2021/01/21 05:41:53;;;;;;;4.45;1.70;;;;;;;6.86;65.06;98394.09;5033800;28;20068;-66
2021/01/21 05:44:34;;;;;;;2.60;1.20;;;;;;;6.91;64.83;98374.94;5018496;28;20045;-66
2021/01/21 05:47:12;;;;;;;5.25;2.10;;;;;;;6.88;64.89;98370.00;5032309;28;20041;-66
2021/01/21 05:49:39;;;;;;;6.45;1.42;;;;;;;6.83;65.12;98369.78;5033894;28;20060;-66
2021/01/21 05:52:10;;;;;;;4.20;1.50;;;;;;;6.86;64.71;98335.72;5032758;28;20363;-66
2021/01/21 05:54:36;;;;;;;3.28;1.45;;;;;;;6.89;64.68;98350.44;5032795;28;20129;-66
2021/01/21 05:57:09;;;;;;;4.05;1.75;;;;;;;6.83;65.00;98352.03;5032369;28;20102;-66
2021/01/21 05:59:35;;;;;;;2.30;1.35;;;;;;;6.96;64.40;98345.97;5032928;28;20033;-66
2021/01/21 06:02:16;;;;;;;2.45;1.35;;;;;;;6.90;64.37;98341.44;5032477;28;20036;-66
2021/01/21 06:04:48;;;;;;;3.70;1.50;;;;;;;6.89;64.59;98351.25;5032495;28;20514;-66
2021/01/21 06:07:20;;;;;;;2.27;1.20;;;;;;;6.96;64.28;98336.19;5032208;28;20133;-66
2021/01/21 06:09:46;;;;;;;7.32;1.50;;;;;;;6.89;64.59;98331.88;5032600;28;20272;-66
2021/01/21 06:12:12;;;;;;;4.28;1.48;;;;;;;6.98;64.24;98338.63;5032265;28;20021;-66
2021/01/21 06:14:37;;;;;;;4.00;1.50;;;;;;;6.96;64.18;98324.75;5033364;28;20041;-66
2021/01/21 06:17:02;;;;;;;2.73;1.70;;;;;;;6.94;64.28;98313.50;5033024;28;20052;-66
2021/01/21 06:19:34;;;;;;;3.75;1.38;;;;;;;6.95;64.18;98325.75;5032298;28;20029;-66
2021/01/21 06:22:09;;;;;;;3.45;1.42;;;;;;;6.97;64.06;98329.03;5032094;28;20033;-66
2021/01/21 06:25:05;;;;;;;4.85;1.50;;;;;;;6.94;64.16;98326.78;5032334;28;20118;-66
2021/01/21 06:27:33;;;;;;;2.00;1.30;;;;;;;6.91;64.53;98309.44;5031813;28;20092;-66
2021/01/21 06:30:00;;;;;;;3.53;2.10;;;;;;;6.86;64.34;98308.38;5032090;28;20451;-66
2021/01/21 06:32:34;;;;;;;4.93;2.17;;;;;;;6.90;64.42;98305.13;5032013;28;20095;-66
2021/01/21 06:35:04;;;;;;;7.50;1.65;;;;;;;6.93;64.27;98295.94;5015174;28;20044;-66
2021/01/21 06:37:32;;;;;;;5.28;1.65;;;;;;;6.94;64.13;98305.56;5015093;28;20033;-66
2021/01/21 06:40:08;;;;;;;4.47;1.20;;;;;;;7.00;64.12;98286.22;5015406;28;20191;-66
2021/01/21 06:42:36;;;;;;;3.30;1.65;;;;;;;6.96;64.14;98282.31;5031607;28;20084;-66
2021/01/21 06:45:04;;;;;;;2.35;1.20;;;;;;;7.00;64.06;98283.56;5031814;28;20037;-66
2021/01/21 06:47:30;;;;;;;3.58;1.67;;;;;;;6.97;64.24;98289.22;5031338;28;20439;-66
2021/01/21 06:49:57;;;;;;;2.97;1.80;;;;;;;7.03;63.89;98274.38;5032664;28;20029;-66
2021/01/21 06:52:25;;;;;;;4.97;1.38;;;;;;;7.04;64.10;98283.97;5032656;28;20037;-66
2021/01/21 06:54:52;;;;;;;7.50;1.88;;;;;;;7.08;63.66;98264.78;5031601;28;20090;-66
2021/01/21 06:57:35;;;;;;;;;;;;;;;7.10;63.79;98281.31;5032705;28;20040;-66
2021/01/21 07:00:04;;;;;;;3.03;1.23;;;;;;;7.08;63.76;98280.69;5031394;28;19921;-66
2021/01/21 07:02:46;;;;;;;6.50;1.38;;;;;;;7.24;63.04;98273.41;5032358;28;20427;-66
2021/01/21 07:05:12;;;;;;;6.32;1.35;;;;;;;7.26;62.70;98266.03;5032230;28;20120;-66
2021/01/21 07:07:53;;;;;;;4.07;1.73;;;;;;;7.28;62.90;98271.97;5032058;28;20033;-66
2021/01/21 07:10:22;;;;;;;4.30;1.50;;;;;;;7.32;62.68;98265.22;5031157;28;20105;-66
2021/01/21 07:12:49;;;;;;;5.18;1.40;;;;;;;7.29;63.00;98265.66;5014696;28;20363;-66
2021/01/21 07:15:15;;;;;;;1.88;1.17;;;;;;;7.54;64.44;98256.06;5031115;28;20582;-66
2021/01/21 07:17:41;;;;;;;2.38;1.40;;;;;;;7.34;62.69;98247.28;5031799;28;20477;-66
2021/01/21 07:20:07;;;;;;;3.17;1.30;;;;;;;7.31;62.82;98247.69;5031056;28;20082;-66
2021/01/21 07:22:33;;;;;;;2.10;1.42;;;;;;;7.39;62.63;98250.13;5031961;28;20403;-66
2021/01/21 07:25:16;;;;;;;2.40;1.50;;;;;;;7.35;62.87;98243.59;5031935;28;20396;-66
2021/01/21 07:27:44;;;;;;;4.30;1.30;;;;;;;7.38;62.65;98232.59;5014296;28;20079;-66
2021/01/21 07:30:21;;;;;;;3.17;1.23;;;;;;;7.36;62.62;98231.97;5030944;28;20041;-66
2021/01/21 07:32:46;;;;;;;3.15;1.40;;;;;;;7.41;62.37;98245.44;5031962;28;20112;-66
2021/01/21 07:35:30;;;;;;;3.00;1.60;;;;;;;7.42;62.34;98257.69;5031788;28;20125;-66
2021/01/21 07:37:55;;;;;;;3.97;2.15;;;;;;;7.42;62.32;98249.72;5030690;28;20497;-66
2021/01/21 07:40:40;;;;;;;5.00;2.30;;;;;;;7.39;62.52;98242.16;5031730;28;20116;-66
2021/01/21 07:43:05;;;;;;;3.55;1.35;;;;;;;7.36;62.75;98261.16;5030581;28;20057;-66
2021/01/21 07:45:31;;;;;;;3.80;1.37;;;;;;;7.32;62.86;98258.09;5031502;28;20065;-66
2021/01/21 07:48:18;;;;;;;2.78;0.93;;;;;;;7.33;62.98;98243.00;5029901;28;20459;-66
2021/01/21 07:50:43;;;;;;;3.25;1.20;;;;;;;7.44;62.43;98238.91;5031494;28;20087;-66
2021/01/21 07:53:21;;;;;;;5.30;1.20;;;;;;;7.44;62.80;98257.50;5030612;28;20021;-66
2021/01/21 07:55:47;;;;;;;3.47;1.05;;;;;;;7.52;62.49;98249.34;5031196;28;20056;-67
2021/01/21 07:58:17;;;;;;;3.35;1.17;;;;;;;7.68;61.92;98262.22;5030478;28;20040;-67
2021/01/21 08:00:42;;;;;;;3.00;1.33;;;;;;;7.86;61.21;98256.25;5013947;28;20117;-67
2021/01/21 08:03:08;;;;;;;2.85;1.30;;;;;;;8.08;60.48;98274.63;5031362;28;20137;-67
2021/01/21 08:05:34;;;;;;;2.38;1.15;;;;;;;8.14;60.29;98287.09;5013726;28;20033;-67
2021/01/21 08:08:03;;;;;;;3.67;1.35;;;;;;;8.30;59.86;98302.63;5030407;28;20037;-67
2021/01/21 08:10:31;;;;;;;3.35;1.17;;;;;;;8.33;59.93;98288.91;5031347;28;20373;-66
2021/01/21 08:12:58;;;;;;;3.85;1.42;;;;;;;8.50;59.39;98331.03;5030183;28;20037;-67
2021/01/21 08:15:25;;;;;;;3.55;1.27;;;;;;;8.50;59.75;98331.88;5013761;28;20041;-67
2021/01/21 08:17:52;;;;;;;3.75;1.10;;;;;;;8.59;59.82;98425.53;5030996;28;20065;-67
2021/01/21 08:20:19;;;;;;;2.42;1.20;;;;;;;8.23;61.77;98432.88;5030362;28;20041;-67
2021/01/21 08:22:56;;;;;;;1.95;0.82;;;;;;;7.77;64.40;98441.59;5030079;28;20084;-67
2021/01/21 08:25:23;;;;;;;1.00;0.40;;;;;;;7.49;65.43;98449.69;5030096;28;20441;-67
2021/01/21 08:27:50;;;;;;;1.60;0.40;;;;;;;7.35;65.80;98447.97;5029818;28;20041;-67
2021/01/21 08:30:20;;;;;;;0.25;0.20;;;;;;;7.23;64.37;98457.53;5031144;28;20048;-67
2021/01/21 08:32:51;;;;;;;0.32;0.20;;;;;;;7.02;63.61;98464.56;5030051;28;20049;-67
2021/01/21 08:35:21;;;;;;;0.38;0.10;;;;;;;6.92;63.60;98445.53;5030228;28;20124;-67
2021/01/21 08:37:48;;;;;;;1.88;0.43;;;;;;;6.86;64.01;98460.41;5029802;28;20076;-67
2021/01/21 08:40:14;;;;;;;2.58;0.30;;;;;;;6.67;63.03;98467.22;5031102;28;20455;-67
2021/01/21 08:42:40;;;;;;;2.78;0.30;;;;;;;6.58;63.54;98481.63;5030829;28;20029;-67
2021/01/21 08:45:06;;;;;;;6.72;0.82;;;;;;;6.44;64.29;98463.94;5013645;28;20041;-67
2021/01/21 08:47:49;;;;;;;4.05;0.40;;;;;;;6.35;64.74;98463.28;5030691;28;20068;-67
2021/01/21 08:50:16;;;;;;;3.10;0.50;;;;;;;6.28;65.80;98465.88;5029991;28;20128;-67
2021/01/21 08:52:56;;;;;;;0.88;0.45;;;;;;;6.17;66.14;98479.63;5013410;28;20034;-67
2021/01/21 08:55:21;;;;;;;2.05;0.50;;;;;;;6.20;66.20;98479.22;5029959;28;20461;-67
2021/01/21 08:58:02;;;;;;;4.03;0.70;;;;;;;6.22;66.01;98489.66;5031379;28;20116;-67
2021/01/21 09:00:29;;;;;;;2.58;0.80;;;;;;;6.14;66.28;98482.66;5033899;28;20102;-67
2021/01/21 09:02:55;;;;;;;2.78;1.00;;;;;;;6.15;66.09;98516.06;5034420;28;20048;-67
2021/01/21 09:05:21;;;;;;;3.50;1.00;;;;;;;6.13;67.10;98504.84;5033703;28;20451;-67
2021/01/21 09:07:49;;;;;;;3.35;0.95;;;;;;;6.03;67.52;98475.19;5016848;28;20049;-68
2021/01/21 09:10:14;;;;;;;2.28;0.50;;;;;;;6.05;68.44;98510.28;5034208;28;20037;-67
2021/01/21 09:12:40;;;;;;;2.27;0.50;;;;;;;5.96;67.86;98503.44;5034413;28;20029;-67
2021/01/21 09:15:13;;;;;;;2.93;0.60;;;;;;;6.01;68.28;98527.53;5034543;28;20183;-67
2021/01/21 09:17:40;;;;;;;2.20;0.85;;;;;;;6.06;67.50;98503.94;5016412;28;20033;-67
2021/01/21 09:20:26;;;;;;;2.63;0.77;;;;;;;6.07;68.24;98513.56;5033487;28;20147;-67
2021/01/21 09:22:52;;;;;;;3.40;0.52;;;;;;;6.06;67.69;98549.00;5016658;28;20486;-67
2021/01/21 09:25:25;;;;;;;1.60;0.60;;;;;;;6.05;68.19;98523.53;5033378;28;20121;-67
2021/01/21 09:27:53;;;;;;;4.63;1.38;;;;;;;6.02;68.61;98529.19;5032634;28;20649;-67
2021/01/21 09:30:18;;;;;;;2.22;0.95;;;;;;;5.99;68.45;98540.16;5034099;28;20069;-67
2021/01/21 09:32:44;;;;;;;1.57;0.33;;;;;;;6.03;68.49;98549.38;5033294;28;20060;-67
2021/01/21 09:35:12;;;;;;;2.87;1.27;;;;;;;6.07;68.45;98553.28;5033100;28;20319;-67
2021/01/21 09:37:40;;;;;;;3.58;0.63;;;;;;;6.13;67.45;98549.88;5032862;28;20356;-67
2021/01/21 09:40:08;;;;;;;2.58;0.55;;;;;;;6.17;67.65;98561.75;5033919;28;20033;-67
2021/01/21 09:42:33;;;;;;;1.13;0.55;;;;;;;6.19;67.75;98567.69;5033707;28;20405;-67
2021/01/21 09:44:59;;;;;;;0.82;0.38;;;;;;;6.14;67.92;98562.13;5032881;28;20138;-67
2021/01/21 09:47:25;;;;;;;2.33;1.23;;;;;;;6.25;67.03;98566.09;5032626;28;20042;-67
2021/01/21 09:49:50;;;;;;;2.72;0.93;;;;;;;6.28;67.26;98568.41;5032724;28;20478;-67
2021/01/21 09:52:16;;;;;;;2.47;1.17;;;;;;;6.27;67.13;98577.34;5032732;28;20053;-67
2021/01/21 09:54:41;;;;;;;6.53;1.07;;;;;;;6.32;66.35;98569.63;5033597;28;20040;-67
2021/01/21 09:57:07;;;;;;;3.10;1.60;;;;;;;6.27;66.70;98590.59;5032314;28;20135;-67
2021/01/21 09:59:32;;;;;;;6.40;0.70;;;;;;;6.27;66.91;98580.00;5032698;28;20072;-67
2021/01/21 10:01:58;;;;;;;2.17;0.90;;;;;;;6.33;67.44;98574.75;5032732;28;20469;-67
2021/01/21 10:04:24;;;;;;;3.47;0.90;;;;;;;6.31;67.00;98576.78;5032442;28;20041;-67
2021/01/21 10:06:50;;;;;;;3.40;0.85;;;;;;;6.42;66.36;98580.78;5033183;28;20029;-67
2021/01/21 10:09:15;;;;;;;4.47;1.02;;;;;;;6.67;64.88;98580.38;5032922;28;20103;-67
2021/01/21 10:11:40;;;;;;;9.93;1.37;;;;;;;7.24;63.60;98599.84;5033242;28;20059;-67
2021/01/21 10:14:06;;;;;;;6.07;1.40;;;;;;;7.47;62.45;98600.41;5033369;28;20370;-68
2021/01/21 10:16:32;;;;;;;4.82;0.85;;;;;;;7.54;62.23;98608.41;5033035;28;20522;-67
2021/01/21 10:18:57;;;;;;;1.52;0.77;;;;;;;8.29;60.28;98595.25;5032272;28;20039;-67
2021/01/21 10:21:24;;;;;;;5.43;1.27;;;;;;;8.18;60.49;98612.59;5033187;28;20044;-67
2021/01/21 10:23:50;;;;;;;4.20;1.60;;;;;;;7.83;61.35;98620.63;5033085;28;20359;-67
2021/01/21 10:26:15;;;;;;;3.67;0.95;;;;;;;7.86;61.33;98622.88;5015053;28;20107;-67
2021/01/21 10:28:41;;;;;;;7.67;2.07;;;;;;;7.76;61.58;98633.06;5033092;28;20041;-67
2021/01/21 10:31:07;;;;;;;9.18;2.42;;;;;;;7.43;62.56;98641.63;5032025;28;20425;-67
2021/01/21 10:33:32;;;;;;;6.47;1.73;;;;;;;7.39;63.07;98630.56;5033050;28;20451;-67
2021/01/21 10:35:57;;;;;;;8.17;2.20;;;;;;;7.19;63.60;98627.78;5032619;28;20037;-68
2021/01/21 10:38:23;;;;;;;5.70;1.20;;;;;;;7.03;64.19;98635.19;5032924;28;20092;-68
2021/01/21 10:40:48;;;;;;;2.80;1.20;;;;;;;6.87;64.80;98650.34;5032229;28;20048;-67
2021/01/21 10:43:15;;;;;;;4.93;1.10;;;;;;;7.58;62.42;98652.13;5032627;28;20033;-68
2021/01/21 10:45:40;;;;;;;7.88;1.23;;;;;;;7.30;63.43;98649.47;5031627;28;20103;-67
2021/01/21 10:48:06;;;;;;;7.93;1.57;;;;;;;7.21;63.92;98645.31;5031608;28;20052;-68
2021/01/21 10:50:32;;;;;;;6.32;1.48;;;;;;;7.05;64.23;98665.84;5032741;28;20045;-68
2021/01/21 10:52:57;;;;;;;3.57;1.20;;;;;;;6.76;64.83;98664.91;5031573;28;20048;-67
2021/01/21 10:55:22;;;;;;;9.03;2.07;;;;;;;7.29;63.81;98653.16;5031446;28;20037;-67
2021/01/21 10:57:48;;;;;;;4.23;1.10;;;;;;;7.60;61.89;98653.56;5031118;28;20041;-68
2021/01/21 11:00:14;;;;;;;7.32;1.05;;;;;;;7.38;60.99;98646.69;5032447;28;20053;-68
2021/01/21 11:02:39;;;;;;;7.28;1.98;;;;;;;7.02;61.50;98639.66;5032256;28;20033;-68
2021/01/21 11:05:06;;;;;;;6.97;1.67;;;;;;;8.00;59.26;98651.16;5031243;28;20439;-68
2021/01/21 11:07:31;;;;;;;2.80;1.25;;;;;;;8.36;58.26;98660.72;5031943;28;20052;-68
2021/01/21 11:09:56;;;;;;;6.53;1.30;;;;;;;7.97;58.77;98656.88;5031204;28;20041;-68
2021/01/21 11:12:21;;;;;;;3.07;1.50;;;;;;;7.71;59.83;98651.41;5014760;28;20041;-68
2021/01/21 11:14:52;;;;;;;4.37;1.53;;;;;;;8.09;59.39;98665.09;5032377;28;20033;-68
2021/01/21 11:17:18;;;;;;;2.90;1.27;;;;;;;7.68;59.98;98663.25;5031930;28;20367;-68
2021/01/21 11:19:43;;;;;;;8.07;1.43;;;;;;;7.80;58.70;98660.88;5031051;28;20037;-68
2021/01/21 11:22:10;;;;;;;5.67;1.63;;;;;;;8.06;57.88;98657.53;5030262;28;20048;-68
2021/01/21 11:24:36;;;;;;;4.43;1.10;;;;;;;7.97;57.79;98662.19;5031792;28;20205;-68
2021/01/21 11:27:01;;;;;;;4.80;1.48;;;;;;;7.46;59.05;98665.13;5030753;28;20720;-68
2021/01/21 11:29:26;;;;;;;9.63;2.13;;;;;;;7.18;59.43;98662.47;5030594;28;20033;-68
2021/01/21 11:31:53;;;;;;;4.30;1.40;;;;;;;7.00;60.14;98651.47;5031904;28;20037;-68
2021/01/21 11:34:19;;;;;;;;;;;;;;;7.59;58.46;98654.59;5032182;28;20041;-68
2021/01/21 11:36:44;;;;;;;7.88;1.67;;;;;;;7.58;58.13;98671.53;5030573;28;20236;-68
2021/01/21 11:39:10;;;;;;;2.93;1.17;;;;;;;7.66;58.23;98667.13;5031546;28;20045;-68
2021/01/21 11:41:36;;;;;;;5.00;1.95;;;;;;;7.90;57.73;98663.16;5030873;28;20050;-68
2021/01/21 11:44:01;;;;;;;4.53;1.65;;;;;;;7.89;57.22;98665.00;5030605;28;20115;-68
2021/01/21 11:46:26;;;;;;;9.70;1.53;;;;;;;8.39;56.30;98647.03;5031461;28;20038;-68
2021/01/21 11:48:52;;;;;;;4.47;1.37;;;;;;;8.10;56.33;98652.63;5014207;28;20056;-68
2021/01/21 11:51:18;;;;;;;4.53;1.58;;;;;;;8.85;54.65;98658.84;5031681;28;20037;-68
2021/01/21 11:53:44;;;;;;;5.30;1.52;;;;;;;8.11;56.28;98652.44;5031507;28;20025;-68
2021/01/21 11:56:09;;;;;;;5.50;1.50;;;;;;;8.25;55.74;98664.75;5030195;28;20048;-68